createdAt,value
2019-05-15T00:01:05.641Z,2.70
2019-05-15T00:03:34.010Z,3.50
2019-05-15T00:06:02.525Z,2.87
2019-05-15T00:08:30.866Z,3.57
2019-05-15T00:10:59.253Z,2.73
2019-05-15T00:13:28.257Z,2.60
2019-05-15T00:15:58.879Z,2.60
2019-05-15T00:18:28.116Z,2.60
2019-05-15T00:20:59.318Z,2.80
2019-05-15T00:23:28.955Z,2.97
2019-05-15T00:25:58.472Z,2.30
2019-05-15T00:28:28.049Z,2.90
2019-05-15T00:30:58.218Z,2.97
2019-05-15T00:33:28.478Z,2.90
2019-05-15T00:35:58.846Z,2.80
2019-05-15T00:38:27.999Z,2.60
2019-05-15T00:40:58.450Z,3.57
2019-05-15T00:43:28.950Z,3.00
2019-05-15T00:45:58.579Z,2.90
2019-05-15T00:48:29.218Z,2.90
2019-05-15T00:50:59.030Z,5.63
2019-05-15T00:53:28.290Z,3.10
2019-05-15T00:55:58.087Z,3.67
2019-05-15T00:58:28.330Z,2.50
2019-05-15T01:00:59.052Z,3.00
2019-05-15T01:03:27.923Z,2.63
2019-05-15T01:05:58.510Z,3.27
2019-05-15T01:08:28.480Z,3.10
2019-05-15T01:10:58.225Z,3.27
2019-05-15T01:13:28.155Z,3.87
2019-05-15T01:15:58.202Z,3.40
2019-05-15T01:18:29.060Z,3.20
2019-05-15T01:20:58.667Z,3.00
2019-05-15T01:23:28.268Z,3.10
2019-05-15T01:25:58.744Z,4.33
2019-05-15T01:28:28.753Z,3.53
2019-05-15T01:30:59.042Z,3.47
2019-05-15T01:33:28.299Z,4.07
2019-05-15T01:35:59.021Z,3.00
2019-05-15T01:38:28.019Z,3.63
2019-05-15T01:40:58.983Z,3.70
2019-05-15T01:43:28.911Z,4.00
2019-05-15T01:45:58.747Z,3.53
2019-05-15T01:48:28.259Z,4.17
2019-05-15T01:50:58.577Z,3.50
2019-05-15T01:53:28.878Z,5.47
2019-05-15T01:55:58.952Z,3.37
2019-05-15T01:58:28.780Z,3.57
2019-05-15T02:00:58.998Z,3.37
2019-05-15T02:03:28.947Z,3.70
2019-05-15T02:05:58.690Z,4.23
2019-05-15T02:08:28.461Z,3.63
2019-05-15T02:10:58.794Z,3.53
2019-05-15T02:13:28.207Z,3.60
2019-05-15T02:15:58.765Z,4.03
2019-05-15T02:18:28.542Z,4.60
2019-05-15T02:20:58.719Z,3.37
2019-05-15T02:23:28.067Z,3.57
2019-05-15T02:25:58.705Z,3.40
2019-05-15T02:28:28.736Z,4.20
2019-05-15T02:30:58.682Z,3.67
2019-05-15T02:33:29.737Z,4.07
2019-05-15T02:35:59.249Z,4.20
2019-05-15T02:38:29.558Z,4.20
2019-05-15T02:40:59.274Z,3.80
2019-05-15T02:43:29.518Z,3.00
2019-05-15T02:46:00.112Z,3.67
2019-05-15T02:48:29.029Z,3.93
2019-05-15T02:50:58.883Z,5.63
2019-05-15T02:53:29.832Z,3.57
2019-05-15T02:56:00.068Z,4.07
2019-05-15T02:58:29.168Z,3.00
2019-05-15T03:00:59.305Z,9.70
2019-05-15T03:03:29.468Z,4.07
2019-05-15T03:06:00.068Z,3.80
2019-05-15T03:08:29.762Z,3.70
2019-05-15T03:10:59.227Z,3.80
2019-05-15T03:13:29.773Z,3.60
2019-05-15T03:15:59.884Z,3.80
2019-05-15T03:18:29.095Z,3.60
2019-05-15T03:21:00.286Z,3.93
2019-05-15T03:23:29.540Z,3.20
2019-05-15T03:26:03.006Z,3.27
2019-05-15T03:28:29.455Z,4.40
2019-05-15T03:31:31.155Z,4.30
2019-05-15T03:33:35.882Z,3.27
2019-05-15T03:36:02.562Z,3.73
2019-05-15T03:38:30.017Z,3.80
2019-05-15T03:40:59.522Z,4.33
2019-05-15T03:43:29.385Z,3.60
2019-05-15T03:46:01.201Z,5.13
2019-05-15T03:48:29.648Z,3.97
2019-05-15T03:50:59.795Z,4.07
2019-05-15T03:53:29.818Z,6.57
2019-05-15T03:55:59.155Z,3.97
2019-05-15T03:58:28.827Z,4.30
2019-05-15T04:01:00.342Z,3.80
2019-05-15T04:03:29.952Z,3.93
2019-05-15T04:06:00.576Z,5.17
2019-05-15T04:08:29.932Z,4.27
2019-05-15T04:10:59.623Z,5.77
2019-05-15T04:13:30.086Z,5.43
2019-05-15T04:15:59.467Z,6.23
2019-05-15T04:18:29.135Z,8.53
2019-05-15T04:21:00.242Z,5.73
2019-05-15T04:23:30.411Z,6.73
2019-05-15T04:25:59.143Z,9.43
2019-05-15T04:28:29.428Z,13.63
2019-05-15T04:30:59.617Z,16.27
2019-05-15T04:33:29.287Z,14.00
2019-05-15T04:35:58.940Z,13.30
2019-05-15T04:38:29.248Z,13.10
2019-05-15T04:40:59.094Z,10.50
2019-05-15T04:43:30.175Z,9.97
2019-05-15T04:45:59.083Z,9.10
2019-05-15T04:48:29.042Z,7.57
2019-05-15T04:50:58.885Z,10.03
2019-05-15T04:53:29.711Z,6.87
2019-05-15T04:55:59.702Z,8.90
2019-05-15T04:58:29.600Z,7.90
2019-05-15T05:00:59.927Z,7.33
2019-05-15T05:03:29.221Z,5.90
2019-05-15T05:05:59.071Z,5.90
2019-05-15T05:08:29.257Z,7.70
2019-05-15T05:10:59.136Z,5.33
2019-05-15T05:13:28.701Z,5.53
2019-05-15T05:15:58.775Z,5.93
2019-05-15T05:18:29.843Z,12.00
2019-05-15T05:20:57.822Z,6.57
2019-05-15T05:23:28.193Z,5.60
2019-05-15T05:25:58.097Z,5.77
2019-05-15T05:28:28.722Z,5.37
2019-05-15T05:30:58.784Z,6.43
2019-05-15T05:33:28.434Z,4.73
2019-05-15T05:35:58.357Z,5.40
2019-05-15T05:38:28.174Z,6.80
2019-05-15T05:40:58.680Z,5.93
2019-05-15T05:43:26.820Z,5.50
2019-05-15T05:45:55.156Z,5.93
2019-05-15T05:48:23.506Z,6.70
2019-05-15T05:50:51.895Z,5.70
2019-05-15T05:53:21.315Z,6.00
2019-05-15T05:55:53.007Z,5.10
2019-05-15T05:58:20.088Z,4.93
2019-05-15T06:00:49.205Z,5.53
2019-05-15T06:03:19.714Z,6.90
2019-05-15T06:05:49.554Z,5.87
2019-05-15T06:08:19.444Z,5.80
2019-05-15T06:10:49.656Z,5.00
2019-05-15T06:13:18.635Z,5.60
2019-05-15T06:15:48.895Z,4.90
2019-05-15T06:18:19.570Z,5.50
2019-05-15T06:20:49.535Z,6.10
2019-05-15T06:23:23.277Z,4.50
2019-05-15T06:25:48.829Z,5.03
2019-05-15T06:28:19.612Z,4.40
2019-05-15T06:30:48.613Z,4.67
2019-05-15T06:33:18.845Z,4.30
2019-05-15T06:35:48.862Z,4.77
2019-05-15T06:38:19.260Z,4.53
2019-05-15T06:40:49.925Z,4.53
2019-05-15T06:43:19.464Z,4.13
2019-05-15T06:45:48.835Z,4.97
2019-05-15T06:48:18.333Z,4.43
2019-05-15T06:50:49.047Z,8.83
2019-05-15T06:53:19.332Z,6.10
2019-05-15T06:55:48.576Z,5.60
2019-05-15T06:58:19.226Z,6.07
2019-05-15T07:00:48.824Z,4.90
2019-05-15T07:03:24.883Z,4.50
2019-05-15T07:05:50.727Z,4.83
2019-05-15T07:08:18.397Z,4.53
2019-05-15T07:10:48.685Z,5.30
2019-05-15T07:13:18.225Z,5.53
2019-05-15T07:15:49.311Z,4.77
2019-05-15T07:18:19.385Z,4.03
2019-05-15T07:20:48.851Z,4.07
2019-05-15T07:23:18.796Z,4.30
2019-05-15T07:25:49.776Z,4.23
2019-05-15T07:28:18.295Z,3.90
2019-05-15T07:30:49.412Z,4.03
2019-05-15T07:33:28.051Z,3.83
2019-05-15T07:35:49.284Z,3.50
2019-05-15T07:38:18.271Z,3.73
2019-05-15T07:40:55.499Z,3.60
2019-05-15T07:43:18.137Z,4.10
2019-05-15T07:45:53.998Z,4.13
2019-05-15T07:48:18.900Z,8.30
2019-05-15T07:50:49.685Z,3.70
2019-05-15T07:53:19.681Z,3.80
2019-05-15T07:55:50.197Z,3.40
2019-05-15T07:58:21.389Z,3.73
2019-05-15T08:00:49.311Z,3.33
2019-05-15T08:03:18.518Z,3.50
2019-05-15T08:05:58.664Z,3.90
2019-05-15T08:08:18.535Z,3.40
2019-05-15T08:10:48.909Z,3.03
2019-05-15T08:13:18.538Z,3.30
2019-05-15T08:15:48.831Z,3.50
2019-05-15T08:18:18.140Z,3.23
2019-05-15T08:21:02.620Z,3.37
2019-05-15T08:23:19.329Z,2.77
2019-05-15T08:25:48.584Z,3.47
2019-05-15T08:28:18.957Z,2.80
2019-05-15T08:30:49.457Z,3.63
2019-05-15T08:33:17.993Z,4.13
2019-05-15T08:35:51.089Z,3.30
2019-05-15T08:38:18.202Z,3.00
2019-05-15T08:40:48.885Z,3.27
2019-05-15T08:43:18.341Z,3.13
2019-05-15T08:45:49.483Z,3.37
2019-05-15T08:48:18.433Z,3.20
2019-05-15T08:50:48.826Z,4.67
2019-05-15T08:53:19.273Z,2.90
2019-05-15T08:55:48.170Z,3.10
2019-05-15T08:58:20.374Z,2.90
2019-05-15T09:00:51.797Z,2.70
2019-05-15T09:03:18.343Z,4.10
2019-05-15T09:05:48.447Z,3.10
2019-05-15T09:08:19.429Z,3.70
2019-05-15T09:10:49.859Z,2.97
2019-05-15T09:13:18.973Z,2.70
2019-05-15T09:15:48.391Z,2.83
2019-05-15T09:18:19.886Z,2.90
2019-05-15T09:20:49.123Z,2.90
2019-05-15T09:23:19.200Z,2.80
2019-05-15T09:25:49.337Z,2.60
2019-05-15T09:28:19.048Z,2.80
2019-05-15T09:30:48.293Z,3.10
2019-05-15T09:33:19.611Z,2.97
2019-05-15T09:35:49.060Z,3.57
2019-05-15T09:38:18.510Z,3.23
2019-05-15T09:40:50.444Z,2.60
2019-05-15T09:43:18.132Z,2.70
2019-05-15T09:45:49.207Z,2.90
2019-05-15T09:48:19.794Z,3.93
2019-05-15T09:50:49.243Z,2.60
2019-05-15T09:53:18.932Z,3.33
2019-05-15T09:55:49.343Z,2.90
2019-05-15T09:58:20.405Z,3.00
2019-05-15T10:00:51.823Z,2.47
2019-05-15T10:03:19.168Z,2.80
2019-05-15T10:05:48.293Z,2.50
2019-05-15T10:08:20.926Z,3.17
2019-05-15T10:10:48.794Z,2.50
2019-05-15T10:13:18.615Z,2.53
2019-05-15T10:15:50.675Z,2.17
2019-05-15T10:18:18.988Z,2.50
2019-05-15T10:20:47.694Z,2.60
2019-05-15T10:23:19.183Z,2.80
2019-05-15T10:25:48.595Z,2.63
2019-05-15T10:28:18.784Z,2.47
2019-05-15T10:30:49.277Z,2.50
2019-05-15T10:33:19.703Z,2.10
2019-05-15T10:35:47.563Z,2.63
2019-05-15T10:38:15.877Z,2.97
2019-05-15T10:40:58.467Z,3.57
2019-05-15T10:43:14.465Z,2.80
2019-05-15T10:45:43.469Z,3.77
2019-05-15T10:48:11.952Z,2.73
2019-05-15T10:50:40.330Z,2.83
2019-05-15T10:53:11.206Z,2.80
2019-05-15T10:55:39.692Z,2.57
2019-05-15T10:58:16.669Z,2.47
2019-05-15T11:00:38.451Z,2.33
2019-05-15T11:03:08.917Z,2.40
2019-05-15T11:05:45.084Z,2.20
2019-05-15T11:08:08.297Z,2.37
2019-05-15T11:10:38.573Z,2.67
2019-05-15T11:13:09.006Z,2.87
2019-05-15T11:15:40.436Z,2.30
2019-05-15T11:18:09.316Z,2.43
2019-05-15T11:20:40.863Z,2.30
2019-05-15T11:23:09.082Z,2.43
2019-05-15T11:25:37.824Z,2.60
2019-05-15T11:28:08.228Z,2.67
2019-05-15T11:30:39.031Z,2.70
2019-05-15T11:33:09.345Z,2.90
2019-05-15T11:35:40.781Z,2.27
2019-05-15T11:38:10.019Z,2.20
2019-05-15T11:40:38.925Z,2.87
2019-05-15T11:43:08.579Z,3.13
2019-05-15T11:45:38.964Z,2.90
2019-05-15T11:48:09.031Z,3.03
2019-05-15T11:50:39.962Z,2.50
2019-05-15T11:53:08.690Z,2.00
2019-05-15T11:55:38.603Z,2.20
2019-05-15T11:58:09.327Z,2.57
2019-05-15T12:00:38.422Z,2.67
2019-05-15T12:03:09.022Z,2.73
2019-05-15T12:05:38.631Z,2.33
2019-05-15T12:08:08.694Z,1.90
2019-05-15T12:10:38.877Z,2.53
2019-05-15T12:13:09.750Z,2.50
2019-05-15T12:15:38.798Z,3.13
2019-05-15T12:18:08.858Z,2.50
2019-05-15T12:20:38.957Z,3.20
2019-05-15T12:23:09.126Z,2.70
2019-05-15T12:25:39.604Z,2.77
2019-05-15T12:28:09.539Z,2.63
2019-05-15T12:30:40.291Z,2.43
2019-05-15T12:33:09.801Z,3.00
2019-05-15T12:35:39.632Z,2.80
2019-05-15T13:00:39.764Z,2.73
2019-05-15T13:03:09.142Z,3.10
2019-05-15T13:05:39.173Z,2.60
2019-05-15T13:08:08.543Z,2.30
2019-05-15T13:10:38.563Z,2.40
2019-05-15T13:13:09.674Z,2.63
2019-05-15T13:15:41.085Z,2.83
2019-05-15T13:18:13.418Z,3.50
2019-05-15T13:20:38.387Z,3.70
2019-05-15T13:23:07.919Z,3.20
2019-05-15T13:25:38.982Z,3.53
2019-05-15T13:28:08.607Z,3.13
2019-05-15T13:30:40.448Z,4.03
2019-05-15T13:33:09.412Z,2.80
2019-05-15T13:35:38.098Z,3.10
2019-05-15T13:38:09.484Z,2.53
2019-05-15T13:40:39.006Z,2.53
2019-05-15T13:43:08.391Z,4.07
2019-05-15T13:45:38.732Z,2.97
2019-05-15T13:48:08.960Z,3.40
2019-05-15T13:50:40.231Z,2.77
2019-05-15T13:53:10.908Z,3.83
2019-05-15T13:55:42.089Z,2.53
2019-05-15T13:58:08.709Z,3.50
2019-05-15T14:00:39.026Z,2.43
2019-05-15T14:03:09.027Z,2.47
2019-05-15T14:05:38.532Z,2.73
2019-05-15T14:08:07.207Z,2.80
2019-05-15T14:10:38.277Z,2.60
2019-05-15T14:13:06.234Z,2.73
2019-05-15T14:15:34.645Z,2.30
2019-05-15T14:18:03.118Z,2.27
2019-05-15T14:20:31.412Z,2.40
2019-05-15T14:22:59.763Z,2.40
2019-05-15T14:25:28.233Z,2.50
2019-05-15T14:27:59.106Z,2.70
2019-05-15T14:30:29.307Z,2.40
2019-05-15T14:32:59.597Z,2.83
2019-05-15T14:35:27.289Z,2.43
2019-05-15T14:38:03.633Z,2.80
2019-05-15T14:40:25.735Z,4.40
2019-05-15T14:42:54.101Z,2.93
2019-05-15T14:45:22.532Z,2.20
2019-05-15T14:47:50.860Z,2.13
2019-05-15T14:50:19.254Z,2.60
2019-05-15T14:52:48.051Z,2.67
2019-05-15T14:55:16.546Z,2.50
2019-05-15T14:57:45.327Z,2.50
2019-05-15T15:00:13.994Z,2.53
2019-05-15T15:02:42.434Z,2.37
2019-05-15T15:05:11.297Z,3.10
2019-05-15T15:07:41.099Z,3.30
2019-05-15T15:10:09.835Z,3.00
2019-05-15T15:12:39.619Z,2.40
2019-05-15T15:15:10.284Z,2.97
2019-05-15T15:17:39.092Z,3.07
2019-05-15T15:20:09.297Z,3.50
2019-05-15T15:22:39.517Z,2.90
2019-05-15T15:25:09.668Z,2.33
2019-05-15T15:27:39.096Z,2.73
2019-05-15T15:30:09.308Z,2.43
2019-05-15T15:32:38.401Z,4.60
2019-05-15T15:35:08.477Z,3.00
2019-05-15T15:37:38.168Z,3.60
2019-05-15T15:40:08.295Z,2.80
2019-05-15T15:42:39.496Z,2.63
2019-05-15T15:45:09.234Z,2.30
2019-05-15T15:47:38.957Z,2.60
2019-05-15T15:50:09.419Z,2.40
2019-05-15T15:52:38.740Z,2.77
2019-05-15T15:55:09.027Z,2.50
2019-05-15T15:57:39.782Z,2.67
2019-05-15T16:00:11.033Z,2.90
2019-05-15T16:02:41.080Z,2.50
2019-05-15T16:05:10.882Z,2.17
2019-05-15T16:07:39.438Z,2.67
2019-05-15T16:10:09.590Z,2.43
2019-05-15T16:12:39.022Z,2.30
2019-05-15T16:15:09.215Z,2.90
2019-05-15T16:17:38.376Z,2.43
2019-05-15T16:20:08.367Z,2.53
2019-05-15T16:22:38.235Z,2.03
2019-05-15T16:25:10.412Z,2.70
2019-05-15T16:27:38.743Z,2.73
2019-05-15T16:30:08.205Z,3.17
2019-05-15T16:32:38.910Z,2.90
2019-05-15T16:35:08.449Z,5.33
2019-05-15T16:37:39.025Z,2.73
2019-05-15T16:40:10.100Z,2.70
2019-05-15T16:42:38.884Z,2.67
2019-05-15T16:45:10.785Z,2.53
2019-05-15T16:47:40.370Z,2.60
2019-05-15T16:50:09.240Z,3.00
2019-05-15T16:52:38.776Z,2.47
2019-05-15T16:55:09.242Z,2.90
2019-05-15T16:57:38.780Z,2.70
2019-05-15T17:00:10.134Z,2.50
2019-05-15T17:02:40.273Z,2.80
2019-05-15T17:05:09.437Z,2.63
2019-05-15T17:07:38.754Z,2.37
2019-05-15T17:10:08.826Z,3.37
2019-05-15T17:12:38.806Z,3.93
2019-05-15T17:15:08.856Z,3.30
2019-05-15T17:18:01.466Z,3.27
2019-05-15T17:20:29.783Z,13.00
2019-05-15T17:22:58.198Z,5.87
2019-05-15T17:25:26.602Z,6.90
2019-05-15T17:27:55.092Z,12.03
2019-05-15T17:30:23.630Z,3.23
2019-05-15T17:32:52.237Z,2.80
2019-05-15T17:35:20.525Z,3.33
2019-05-15T17:37:48.952Z,5.30
2019-05-15T17:40:17.785Z,3.23
2019-05-15T17:42:48.988Z,3.60
2019-05-15T17:46:01.911Z,3.27
2019-05-15T17:48:30.255Z,4.87
2019-05-15T17:50:59.471Z,2.90
2019-05-15T17:53:28.833Z,4.40
2019-05-15T17:55:58.573Z,3.00
2019-05-15T17:58:28.830Z,2.70
2019-05-15T18:00:59.645Z,3.37
2019-05-15T18:03:28.874Z,2.40
2019-05-15T18:05:59.107Z,3.20
2019-05-15T18:08:28.622Z,2.60
2019-05-15T18:10:58.725Z,2.23
2019-05-15T18:13:28.712Z,2.17
2019-05-15T18:16:03.409Z,2.37
2019-05-15T18:18:27.530Z,1.73
2019-05-15T18:21:02.002Z,2.37
2019-05-15T18:23:30.385Z,2.10
2019-05-15T18:26:02.279Z,2.10
2019-05-15T18:28:30.642Z,1.70
2019-05-15T18:31:04.820Z,2.10
2019-05-15T18:33:33.294Z,2.07
2019-05-15T18:36:04.657Z,2.20
2019-05-15T18:38:33.258Z,2.00
2019-05-15T18:41:04.357Z,2.27
2019-05-15T18:44:03.064Z,2.47
2019-05-15T18:46:31.485Z,2.40
2019-05-15T18:49:02.675Z,2.50
2019-05-15T18:51:31.066Z,2.20
2019-05-15T18:54:02.492Z,2.00
2019-05-15T18:56:30.964Z,2.10
2019-05-15T18:58:59.383Z,1.90
2019-05-15T19:01:28.437Z,2.67
2019-05-15T19:04:02.914Z,2.13
2019-05-15T19:06:31.450Z,3.43
2019-05-15T19:09:04.689Z,2.10
2019-05-15T19:11:33.106Z,2.47
2019-05-15T19:14:04.568Z,2.30
2019-05-15T19:17:03.598Z,2.40
2019-05-15T19:19:32.248Z,2.50
2019-05-15T19:22:00.651Z,2.63
2019-05-15T19:24:29.116Z,2.40
2019-05-15T19:27:03.257Z,2.57
2019-05-15T19:29:32.352Z,2.70
2019-05-15T19:32:00.790Z,2.93
2019-05-15T19:34:29.275Z,2.90
2019-05-15T19:36:58.197Z,2.70
2019-05-15T19:40:03.151Z,2.70
2019-05-15T19:42:31.802Z,2.70
2019-05-15T19:45:00.203Z,2.07
2019-05-15T19:47:28.562Z,2.50
2019-05-15T19:49:57.807Z,4.27
2019-05-15T19:52:28.276Z,3.50
2019-05-15T19:54:57.810Z,2.93
2019-05-15T19:57:28.032Z,2.83
2019-05-15T19:59:58.161Z,2.53
2019-05-15T20:02:28.557Z,3.10
2019-05-15T20:04:58.321Z,3.03
2019-05-15T20:07:28.654Z,2.40
2019-05-15T20:09:58.436Z,2.70
2019-05-15T20:12:27.892Z,2.60
2019-05-15T20:14:58.370Z,3.53
2019-05-15T20:17:27.725Z,2.60
2019-05-15T20:19:58.064Z,3.20
2019-05-15T20:22:28.394Z,2.53
2019-05-15T20:24:58.846Z,3.50
2019-05-15T20:27:28.229Z,2.77
2019-05-15T20:29:56.562Z,3.73
2019-05-15T20:32:27.673Z,2.90
2019-05-15T20:34:57.820Z,2.63
2019-05-15T20:37:28.681Z,2.37
2019-05-15T20:39:58.199Z,2.73
2019-05-15T20:42:26.389Z,3.00
2019-05-15T20:44:54.758Z,2.87
2019-05-15T20:47:23.196Z,2.57
2019-05-15T20:49:51.591Z,2.80
2019-05-15T20:52:21.729Z,2.73
2019-05-15T20:54:50.407Z,3.30
2019-05-15T20:57:18.808Z,2.70
2019-05-15T20:59:48.023Z,2.43
2019-05-15T21:02:18.573Z,2.87
2019-05-15T21:04:47.002Z,2.70
2019-05-15T21:07:15.424Z,3.53
2019-05-15T21:09:43.817Z,2.67
2019-05-15T21:12:12.159Z,2.50
2019-05-15T21:14:40.848Z,2.23
2019-05-15T21:17:09.218Z,2.00
2019-05-15T21:19:38.626Z,2.17
2019-05-15T21:22:08.348Z,5.33
2019-05-15T21:24:37.869Z,2.60
2019-05-15T21:27:06.436Z,2.40
2019-05-15T21:34:01.357Z,2.70
2019-05-15T21:37:03.148Z,2.67
2019-05-15T21:44:01.079Z,4.03
2019-05-15T21:47:03.094Z,2.50
2019-05-15T21:50:02.068Z,2.40
2019-05-15T21:53:03.328Z,2.43
2019-05-15T21:56:02.220Z,2.53
2019-05-15T21:59:03.758Z,3.07
2019-05-15T22:02:02.593Z,2.53
2019-05-15T22:05:04.820Z,2.77
2019-05-15T22:11:04.818Z,2.20
2019-05-15T22:14:03.412Z,2.80
2019-05-15T22:17:02.054Z,2.60
2019-05-15T22:20:04.750Z,4.40
2019-05-15T22:23:04.542Z,3.03
2019-05-15T22:26:03.004Z,2.87
2019-05-15T22:29:01.592Z,3.27
2019-05-15T22:32:03.459Z,3.07
2019-05-15T22:35:09.120Z,3.50
2019-05-15T22:38:02.363Z,4.20
2019-05-15T22:41:04.231Z,4.90
2019-05-15T22:44:02.896Z,3.60
2019-05-15T22:47:01.657Z,3.20
2019-05-15T22:50:04.543Z,2.90
2019-05-15T22:53:03.325Z,2.70
2019-05-15T22:56:02.444Z,3.30
2019-05-15T23:07:08.197Z,2.90
2019-05-15T23:10:05.120Z,3.00
2019-05-15T23:13:03.783Z,3.83
2019-05-15T23:16:03.198Z,4.10
2019-05-15T23:19:01.681Z,3.23
2019-05-15T23:22:03.499Z,2.83
2019-05-15T23:25:02.313Z,3.00
2019-05-15T23:28:04.053Z,3.93
2019-05-15T23:31:02.629Z,4.30
2019-05-15T23:34:01.525Z,3.77
2019-05-15T23:36:59.776Z,3.47
2019-05-15T23:43:03.207Z,4.00
2019-05-15T23:46:01.460Z,4.00
2019-05-15T23:48:29.775Z,3.70
2019-05-15T23:50:59.172Z,3.90
2019-05-15T23:53:28.800Z,6.67
2019-05-15T23:55:58.757Z,4.53
2019-05-15T23:58:29.126Z,4.40
